Time;durP1;ratioP1;P1;durP2;ratioP2;P2;SDS_P1;SDS_P2;PMS_P1;PMS_P2;Temp;Humidity;BMP_temperature;BMP_pressure;BME280_temperature;BME280_humidity;BME280_pressure;Samples;Min_cycle;Max_cycle;Signal;HPM_P1;HPM_P2
2023/07/12 00:02:14;;;;;;;6.20;2.10;;;;;;;18.92;57.83;99964.33;110123;1266;22381;-60
2023/07/12 00:04:45;;;;;;;6.70;1.50;;;;;;;18.89;57.98;99961.19;110081;1279;22196;-58
2023/07/12 00:07:16;;;;;;;8.10;1.80;;;;;;;18.85;58.10;99953.66;110127;1267;22880;-59
2023/07/12 00:09:47;;;;;;;8.50;1.80;;;;;;;18.79;58.14;99944.76;110121;1276;22152;-58
2023/07/12 00:12:17;;;;;;;10.20;1.60;;;;;;;18.77;58.23;99932.20;110101;1269;22267;-61
2023/07/12 00:14:48;;;;;;;9.80;2.00;;;;;;;18.75;58.56;99926.80;110063;1273;22473;-60
2023/07/12 00:17:21;;;;;;;7.80;1.70;;;;;;;18.69;58.64;99933.90;110038;1273;22150;-62
2023/07/12 00:19:52;;;;;;;8.00;2.00;;;;;;;18.66;58.77;99931.19;110037;1273;22298;-60
2023/07/12 00:22:23;;;;;;;7.60;1.80;;;;;;;18.62;58.92;99932.77;110019;1269;22181;-60
2023/07/12 00:24:54;;;;;;;9.30;2.10;;;;;;;18.59;58.98;99927.48;110027;1273;22161;-61
2023/07/12 00:27:25;;;;;;;8.60;1.90;;;;;;;18.55;59.10;99925.46;110010;1273;22382;-58
2023/07/12 00:29:56;;;;;;;9.50;1.90;;;;;;;18.54;59.27;99920.09;110038;1273;22138;-61
2023/07/12 00:32:27;;;;;;;8.00;1.90;;;;;;;18.51;59.39;99917.18;110017;1272;22524;-58
2023/07/12 00:34:58;;;;;;;7.80;1.80;;;;;;;18.47;59.56;99923.52;110014;1280;22945;-61
2023/07/12 00:37:29;;;;;;;10.00;1.80;;;;;;;18.44;59.61;99917.15;110030;1276;22241;-58
2023/07/12 00:40:00;;;;;;;6.70;1.80;;;;;;;18.43;59.61;99917.10;110016;1276;22212;-60
2023/07/12 00:42:38;;;;;;;6.40;1.80;;;;;;;18.44;59.64;99916.46;110036;1276;22145;-58
2023/07/12 00:45:13;;;;;;;6.50;1.60;;;;;;;18.43;59.98;99909.96;110029;1269;22191;-61
2023/07/12 00:47:45;;;;;;;7.60;1.90;;;;;;;18.41;59.92;99910.08;110015;1267;23221;-60
2023/07/12 00:50:19;;;;;;;8.80;2.00;;;;;;;18.39;60.06;99907.23;110015;1264;23061;-59
2023/07/12 00:52:52;;;;;;;9.20;2.00;;;;;;;18.37;60.13;99915.19;109990;1280;22176;-57
2023/07/12 00:55:53;;;;;;;7.70;1.90;;;;;;;18.35;60.24;99909.48;110032;1267;23245;-58
2023/07/12 00:58:26;;;;;;;6.60;1.60;;;;;;;18.31;60.40;99904.96;109603;1276;22339;-57
2023/07/12 01:01:00;;;;;;;11.10;2.30;;;;;;;18.29;60.53;99898.98;109626;1282;22909;-57
2023/07/12 01:03:34;;;;;;;13.30;2.60;;;;;;;18.27;60.46;99890.66;109605;1280;23640;-58
2023/07/12 01:06:08;;;;;;;8.10;1.60;;;;;;;18.26;60.69;99885.17;109581;1276;22389;-59
2023/07/12 01:08:41;;;;;;;8.00;2.00;;;;;;;18.25;60.76;99875.86;109629;1279;22288;-57
2023/07/12 01:11:14;;;;;;;11.30;2.00;;;;;;;18.23;60.99;99875.21;109612;1270;22351;-57
2023/07/12 01:13:46;;;;;;;10.40;2.10;;;;;;;18.21;61.00;99875.71;109623;1280;22186;-56
2023/07/12 01:16:19;;;;;;;11.60;1.90;;;;;;;18.18;61.03;99874.38;109609;1280;22363;-57
2023/07/12 01:18:50;;;;;;;10.40;2.20;;;;;;;18.13;61.18;99871.59;109601;1280;23081;-59
2023/07/12 01:21:24;;;;;;;8.50;2.10;;;;;;;18.09;61.39;99870.59;109633;1281;22866;-58
2023/07/12 01:23:55;;;;;;;9.20;1.80;;;;;;;18.06;61.45;99863.33;109614;1276;23090;-57
2023/07/12 01:26:30;;;;;;;11.50;1.90;;;;;;;18.03;61.63;99857.01;109620;1280;22177;-58
2023/07/12 01:29:03;;;;;;;8.90;1.90;;;;;;;18.01;61.83;99849.10;109538;1285;22314;-55
2023/07/12 01:31:35;;;;;;;9.80;2.30;;;;;;;17.99;61.89;99849.09;109617;1285;22186;-58
2023/07/12 01:34:08;;;;;;;7.90;2.20;;;;;;;17.95;62.08;99846.96;109615;1273;22333;-59
2023/07/12 01:36:39;;;;;;;8.90;2.20;;;;;;;17.89;62.21;99846.21;109951;1269;22162;-58
2023/07/12 01:39:10;;;;;;;5.20;1.50;;;;;;;17.85;62.39;99841.61;110008;1273;22173;-56
2023/07/12 01:41:41;;;;;;;8.30;2.00;;;;;;;17.82;62.44;99832.27;110032;1272;22219;-57
2023/07/12 01:44:12;;;;;;;5.80;1.60;;;;;;;17.78;62.64;99824.58;110003;1272;22313;-58
2023/07/12 01:46:43;;;;;;;9.80;1.70;;;;;;;17.74;62.92;99819.16;110029;1273;22234;-56
2023/07/12 01:49:14;;;;;;;11.00;2.30;;;;;;;17.70;62.98;99819.55;110000;1264;22155;-58
2023/07/12 01:51:45;;;;;;;8.20;2.10;;;;;;;17.67;63.11;99819.02;109964;1267;22197;-58
2023/07/12 01:54:16;;;;;;;8.20;2.00;;;;;;;17.66;63.19;99817.56;110003;1273;23191;-58
2023/07/12 01:56:47;;;;;;;7.10;1.90;;;;;;;17.63;63.25;99813.18;110026;1270;22206;-56
2023/07/12 01:59:18;;;;;;;11.80;2.10;;;;;;;17.60;63.36;99811.13;110040;1273;23011;-58
2023/07/12 02:01:48;;;;;;;15.50;2.20;;;;;;;17.59;63.48;99805.55;110019;1273;22216;-57
2023/07/12 02:04:19;;;;;;;11.90;2.30;;;;;;;17.58;63.69;99802.84;110009;1270;22210;-57
2023/07/12 02:06:50;;;;;;;10.80;2.30;;;;;;;17.56;63.86;99806.37;109982;1272;22287;-57
2023/07/12 02:09:21;;;;;;;10.10;2.10;;;;;;;17.51;63.84;99802.40;110003;1264;22232;-58
2023/07/12 02:11:52;;;;;;;14.40;2.20;;;;;;;17.49;64.05;99796.31;110015;1265;22122;-57
2023/07/12 02:14:23;;;;;;;8.70;1.90;;;;;;;17.46;64.17;99786.12;110028;1267;22204;-58
2023/07/12 02:16:54;;;;;;;9.90;2.20;;;;;;;17.45;64.22;99776.55;110024;1276;22199;-58
2023/07/12 02:19:25;;;;;;;9.60;2.50;;;;;;;17.45;64.44;99775.94;110047;1277;22281;-57
2023/07/12 02:21:56;;;;;;;10.40;2.20;;;;;;;17.45;64.50;99762.70;110013;1269;22354;-56
2023/07/12 02:24:26;;;;;;;9.50;2.50;;;;;;;17.45;64.49;99761.11;110026;1273;23292;-59
2023/07/12 02:26:57;;;;;;;10.40;2.40;;;;;;;17.45;64.47;99753.48;109980;1272;22257;-58
2023/07/12 02:29:29;;;;;;;10.40;3.10;;;;;;;17.44;64.62;99756.14;110031;1272;22260;-58
2023/07/12 02:31:59;;;;;;;10.00;2.30;;;;;;;17.44;64.71;99761.84;110039;1272;23185;-57
2023/07/12 02:34:30;;;;;;;13.40;2.40;;;;;;;17.44;64.81;99756.06;110067;1267;22173;-56
2023/07/12 02:37:01;;;;;;;9.60;2.30;;;;;;;17.43;64.83;99756.12;110005;1273;23115;-57
2023/07/12 02:39:32;;;;;;;10.80;2.60;;;;;;;17.43;64.99;99760.79;110044;1272;22382;-57
2023/07/12 02:42:03;;;;;;;7.90;1.80;;;;;;;17.42;65.13;99763.66;110032;1272;22328;-58
2023/07/12 02:44:34;;;;;;;10.30;2.30;;;;;;;17.41;65.22;99762.82;110038;1269;22436;-58
2023/07/12 02:47:05;;;;;;;11.50;2.50;;;;;;;17.41;65.47;99764.31;110052;1273;22333;-58
2023/07/12 02:49:36;;;;;;;16.70;3.00;;;;;;;17.39;65.49;99762.54;110033;1279;22307;-58
2023/07/12 02:52:09;;;;;;;11.10;2.00;;;;;;;17.37;65.52;99762.27;110048;1272;22926;-57
2023/07/12 02:54:40;;;;;;;10.10;2.80;;;;;;;17.37;65.64;99756.06;110024;1272;22428;-58
2023/07/12 02:57:12;;;;;;;13.10;2.70;;;;;;;17.36;65.76;99750.39;110050;1273;22175;-58
2023/07/12 02:59:44;;;;;;;9.90;2.60;;;;;;;17.34;65.90;99748.83;110009;1266;22650;-56
2023/07/12 03:02:15;;;;;;;14.70;3.10;;;;;;;17.33;66.16;99748.02;110061;1272;22453;-58
2023/07/12 03:04:46;;;;;;;11.50;3.00;;;;;;;17.32;66.16;99745.88;110021;1279;22389;-58
2023/07/12 03:07:17;;;;;;;13.50;2.70;;;;;;;17.32;66.31;99739.53;110046;1279;22311;-59
2023/07/12 03:09:48;;;;;;;9.30;2.30;;;;;;;17.31;66.46;99739.29;110039;1269;22232;-57
2023/07/12 03:12:19;;;;;;;10.20;2.00;;;;;;;17.31;66.54;99734.79;110056;1265;22862;-58
2023/07/12 03:14:50;;;;;;;13.70;2.50;;;;;;;17.33;66.52;99734.27;110037;1272;22397;-56
2023/07/12 03:17:21;;;;;;;11.50;2.20;;;;;;;17.36;66.66;99727.19;110051;1273;22245;-57
2023/07/12 03:19:51;;;;;;;11.00;3.00;;;;;;;17.39;66.62;99718.43;110027;1272;22272;-56
2023/07/12 03:22:22;;;;;;;9.90;2.70;;;;;;;17.42;66.55;99707.91;110051;1267;22305;-57
2023/07/12 03:24:53;;;;;;;10.80;2.10;;;;;;;17.46;66.72;99700.55;110036;1266;23180;-58
2023/07/12 03:27:24;;;;;;;9.40;2.30;;;;;;;17.49;66.69;99692.05;110037;1269;22667;-56
2023/07/12 03:29:55;;;;;;;11.20;2.30;;;;;;;17.53;66.62;99686.09;110019;1266;22360;-56
2023/07/12 03:32:27;;;;;;;12.40;3.00;;;;;;;17.56;66.62;99679.84;110059;1266;22273;-56
2023/07/12 03:34:58;;;;;;;12.10;2.30;;;;;;;17.60;66.61;99673.23;110024;1279;22191;-57
2023/07/12 03:37:29;;;;;;;10.90;2.50;;;;;;;17.63;66.45;99668.73;110038;1269;22197;-56
2023/07/12 03:39:59;;;;;;;10.30;2.40;;;;;;;17.66;66.39;99669.27;110015;1272;22212;-59
2023/07/12 03:42:31;;;;;;;10.70;2.20;;;;;;;17.71;66.49;99675.25;110038;1273;22193;-57
2023/07/12 03:45:02;;;;;;;8.30;1.90;;;;;;;17.74;66.46;99675.06;110026;1272;22371;-58
2023/07/12 03:47:32;;;;;;;14.10;2.10;;;;;;;17.78;66.47;99677.05;110031;1272;23162;-59
2023/07/12 03:50:04;;;;;;;9.00;2.30;;;;;;;17.83;66.78;99676.65;110056;1270;22251;-57
2023/07/12 03:52:35;;;;;;;10.90;2.00;;;;;;;17.87;66.68;99674.01;110072;1279;22292;-57
2023/07/12 03:55:07;;;;;;;7.80;1.80;;;;;;;17.91;66.86;99665.15;110018;1269;22347;-58
2023/07/12 03:57:41;;;;;;;9.70;2.70;;;;;;;17.96;66.85;99658.27;110031;1266;23060;-56
2023/07/12 04:00:14;;;;;;;11.00;2.00;;;;;;;18.00;66.85;99659.42;109967;1275;22341;-58
2023/07/12 04:02:45;;;;;;;7.80;2.00;;;;;;;18.03;66.79;99659.31;110036;1276;22177;-57
2023/07/12 04:05:16;;;;;;;10.90;2.20;;;;;;;18.07;66.55;99655.99;110045;1265;22396;-56
2023/07/12 04:07:47;;;;;;;9.30;1.80;;;;;;;18.12;66.84;99664.83;109994;1272;22210;-57
2023/07/12 04:10:18;;;;;;;7.60;2.10;;;;;;;18.15;66.72;99665.52;110009;1272;22181;-57
2023/07/12 04:12:49;;;;;;;7.20;1.90;;;;;;;18.21;66.58;99667.65;110035;1272;22245;-57
2023/07/12 04:15:20;;;;;;;6.10;1.90;;;;;;;18.25;66.69;99667.71;110036;1272;22145;-59
2023/07/12 04:17:52;;;;;;;8.60;2.10;;;;;;;18.31;66.63;99669.70;110015;1265;22237;-59
2023/07/12 04:20:23;;;;;;;10.10;2.50;;;;;;;18.37;66.55;99669.97;110099;1273;22297;-57
2023/07/12 04:22:55;;;;;;;9.30;2.40;;;;;;;18.44;66.69;99678.23;110099;1272;22914;-61
2023/07/12 04:25:26;;;;;;;8.70;1.70;;;;;;;18.52;66.83;99682.89;110072;1272;22896;-58
2023/07/12 04:27:57;;;;;;;11.00;2.10;;;;;;;18.60;66.77;99686.93;110080;1272;22176;-59
2023/07/12 04:30:28;;;;;;;8.40;2.00;;;;;;;18.67;66.65;99676.34;110095;1272;22244;-59
2023/07/12 04:32:59;;;;;;;11.70;1.90;;;;;;;18.74;66.57;99681.32;110093;1269;22236;-59
2023/07/12 04:35:30;;;;;;;6.30;1.90;;;;;;;18.80;66.39;99683.08;110122;1273;22814;-57
2023/07/12 04:38:00;;;;;;;11.10;1.90;;;;;;;18.88;66.17;99658.58;110073;1272;22486;-58
2023/07/12 04:40:31;;;;;;;7.90;1.90;;;;;;;18.94;66.18;99691.17;110105;1272;22258;-59
2023/07/12 04:43:02;;;;;;;9.10;1.80;;;;;;;19.00;66.02;99679.26;110074;1276;22339;-56
2023/07/12 04:45:33;;;;;;;6.30;1.80;;;;;;;19.07;66.08;99682.95;110034;1272;22252;-57
2023/07/12 04:48:05;;;;;;;6.20;1.50;;;;;;;19.12;65.88;99685.75;110131;1268;23071;-57
2023/07/12 04:50:36;;;;;;;6.30;1.70;;;;;;;19.19;65.83;99686.03;110151;1269;22244;-63
2023/07/12 04:53:07;;;;;;;10.20;2.30;;;;;;;19.26;65.88;99691.13;110137;1273;22176;-58
2023/07/12 04:55:38;;;;;;;7.30;1.80;;;;;;;19.32;65.74;99698.65;110120;1279;22200;-57
2023/07/12 04:58:08;;;;;;;10.30;2.00;;;;;;;19.38;65.94;99701.92;110138;1271;22307;-58
2023/07/12 05:00:40;;;;;;;8.80;2.30;;;;;;;19.43;65.68;99698.77;110098;1275;23515;-58
2023/07/12 05:03:11;;;;;;;8.20;2.00;;;;;;;19.47;65.75;99702.35;110148;1276;22184;-57
2023/07/12 05:05:42;;;;;;;9.80;1.90;;;;;;;19.52;65.51;99700.88;110153;1272;22147;-56
2023/07/12 05:08:13;;;;;;;10.70;2.40;;;;;;;19.57;65.45;99694.54;110185;1273;23132;-58
2023/07/12 05:10:44;;;;;;;9.90;2.10;;;;;;;19.62;65.54;99692.23;110136;1279;22374;-56
2023/07/12 05:13:15;;;;;;;7.90;2.50;;;;;;;19.68;65.60;99688.77;110133;1273;22180;-58
2023/07/12 05:15:52;;;;;;;7.10;1.90;;;;;;;19.74;65.42;99684.43;110137;1272;22405;-61
2023/07/12 05:18:24;;;;;;;8.20;2.00;;;;;;;19.82;65.39;99689.89;110063;1263;22195;-58
2023/07/12 05:20:54;;;;;;;10.60;2.30;;;;;;;19.88;65.44;99685.16;110167;1275;22265;-58
2023/07/12 05:23:25;;;;;;;9.60;1.70;;;;;;;19.95;65.38;99688.23;110116;1272;22992;-56
2023/07/12 05:25:56;;;;;;;8.90;1.90;;;;;;;20.02;65.41;99689.52;110177;1272;22410;-56
2023/07/12 05:28:28;;;;;;;11.10;2.30;;;;;;;20.09;65.45;99688.81;110127;1269;22280;-57
2023/07/12 05:30:59;;;;;;;8.10;2.00;;;;;;;20.18;65.32;99695.32;110132;1274;22913;-57
2023/07/12 05:33:29;;;;;;;10.60;2.80;;;;;;;20.25;65.27;99694.55;110108;1265;22189;-56
2023/07/12 05:36:03;;;;;;;9.60;2.10;;;;;;;20.30;65.20;99688.86;110132;1264;22529;-57
2023/07/12 05:38:33;;;;;;;9.60;2.00;;;;;;;20.35;65.23;99675.89;110139;1272;22675;-57
2023/07/12 05:41:05;;;;;;;7.80;1.40;;;;;;;20.40;65.24;99667.47;110137;1279;22531;-58
2023/07/12 05:43:40;;;;;;;12.50;2.80;;;;;;;20.46;65.23;99659.56;110132;1279;22879;-58
2023/07/12 05:46:11;;;;;;;12.20;2.80;;;;;;;20.51;65.16;99663.17;110118;1272;22277;-58
2023/07/12 05:48:42;;;;;;;10.40;2.40;;;;;;;20.58;65.22;99659.26;110103;1266;22879;-56
2023/07/12 05:51:13;;;;;;;12.40;2.00;;;;;;;20.64;65.30;99649.14;110101;1268;22168;-56
2023/07/12 05:53:44;;;;;;;8.70;2.30;;;;;;;20.71;65.33;99635.10;110110;1272;22288;-59
2023/07/12 05:56:15;;;;;;;10.10;2.40;;;;;;;20.80;65.34;99641.21;110127;1272;22261;-56
2023/07/12 05:58:46;;;;;;;10.20;2.30;;;;;;;20.88;65.36;99636.98;110147;1279;22668;-58
2023/07/12 06:01:19;;;;;;;16.00;2.40;;;;;;;20.96;65.34;99633.93;110155;1263;22578;-58
2023/07/12 06:03:50;;;;;;;11.60;2.90;;;;;;;21.07;65.49;99627.68;110130;1269;22159;-58
2023/07/12 06:06:22;;;;;;;9.70;1.90;;;;;;;21.17;65.31;99630.60;110155;1273;22553;-58
2023/07/12 06:08:53;;;;;;;11.10;2.70;;;;;;;21.26;65.35;99628.90;110101;1277;22236;-58
2023/07/12 06:11:24;;;;;;;12.20;2.70;;;;;;;21.34;65.48;99626.16;110113;1272;23192;-61
2023/07/12 06:13:55;;;;;;;9.20;2.50;;;;;;;21.44;65.44;99621.13;110153;1273;22736;-58
2023/07/12 06:16:26;;;;;;;11.20;2.50;;;;;;;21.55;65.51;99616.57;110127;1272;22288;-61
2023/07/12 06:18:57;;;;;;;10.20;2.20;;;;;;;21.65;65.53;99608.98;110161;1275;23002;-60
2023/07/12 06:21:28;;;;;;;10.20;2.70;;;;;;;21.74;65.44;99599.88;110111;1266;22362;-59
2023/07/12 06:23:59;;;;;;;10.20;3.00;;;;;;;21.84;65.46;99586.75;110103;1269;22131;-60
2023/07/12 06:26:30;;;;;;;11.10;2.20;;;;;;;21.94;65.40;99584.48;110125;1272;22983;-60
2023/07/12 06:29:01;;;;;;;15.20;3.20;;;;;;;22.03;65.50;99579.53;110115;1279;23508;-59
2023/07/12 06:31:32;;;;;;;16.50;3.50;;;;;;;22.12;65.53;99573.97;106024;1272;5401506;-59
2023/07/12 06:34:04;;;;;;;11.30;2.90;;;;;;;22.23;65.58;99580.05;110144;1279;22854;-58
2023/07/12 06:36:35;;;;;;;12.10;3.20;;;;;;;22.32;65.60;99577.70;110098;1272;22166;-61
2023/07/12 06:39:06;;;;;;;11.20;2.80;;;;;;;22.41;65.40;99577.65;110097;1272;22400;-59
2023/07/12 06:41:37;;;;;;;8.70;3.20;;;;;;;22.48;65.31;99573.05;110103;1276;22326;-59
2023/07/12 06:44:08;;;;;;;9.00;2.50;;;;;;;22.54;65.05;99569.30;110114;1265;22289;-60
2023/07/12 06:46:39;;;;;;;10.10;2.70;;;;;;;22.62;65.14;99564.20;110123;1272;22217;-58
2023/07/12 06:49:15;;;;;;;10.50;2.90;;;;;;;22.70;65.10;99564.33;110094;1272;22328;-59
2023/07/12 06:51:47;;;;;;;11.50;2.80;;;;;;;22.79;65.06;99571.66;110118;1265;22159;-61
2023/07/12 06:54:18;;;;;;;13.60;3.10;;;;;;;22.87;64.98;99574.30;110066;1272;22162;-61
2023/07/12 06:56:49;;;;;;;9.80;3.00;;;;;;;22.94;64.90;99578.03;110103;1268;22179;-59
2023/07/12 06:59:20;;;;;;;13.50;2.90;;;;;;;23.01;64.84;99573.54;110131;1266;22170;-59
2023/07/12 07:01:51;;;;;;;13.00;3.60;;;;;;;23.09;64.78;99574.80;110147;1279;22154;-59
2023/07/12 07:04:22;;;;;;;11.80;3.20;;;;;;;23.16;64.72;99572.16;110124;1272;22139;-59
2023/07/12 07:06:53;;;;;;;10.30;3.00;;;;;;;23.22;64.76;99575.41;110114;1266;22859;-59
2023/07/12 07:09:24;;;;;;;17.00;3.70;;;;;;;23.28;64.52;99584.13;110067;1272;22257;-58
2023/07/12 07:11:55;;;;;;;18.20;3.60;;;;;;;23.34;64.55;99587.45;110111;1269;22861;-60
2023/07/12 07:14:26;;;;;;;13.10;3.20;;;;;;;23.38;64.54;99583.53;110115;1266;22162;-60
2023/07/12 07:16:57;;;;;;;13.10;3.90;;;;;;;23.43;64.35;99582.58;110128;1272;22124;-59
2023/07/12 07:19:28;;;;;;;11.10;3.40;;;;;;;23.47;63.84;99579.91;110117;1277;22267;-61
2023/07/12 07:21:59;;;;;;;13.40;3.60;;;;;;;23.51;63.96;99573.11;110123;1272;22206;-61
2023/07/12 07:24:29;;;;;;;14.80;4.30;;;;;;;23.53;63.44;99574.00;110110;1269;22237;-60
2023/07/12 07:27:00;;;;;;;14.20;2.90;;;;;;;23.53;63.46;99568.98;110130;1275;22722;-61
2023/07/12 07:29:31;;;;;;;12.20;3.30;;;;;;;23.51;63.57;99573.38;110155;1272;22239;-59
2023/07/12 07:32:02;;;;;;;14.10;3.60;;;;;;;23.45;63.47;99568.23;110202;1279;22328;-60
2023/07/12 07:34:33;;;;;;;11.80;3.60;;;;;;;23.45;63.57;99577.70;110166;1272;22399;-59
2023/07/12 07:37:05;;;;;;;13.80;4.80;;;;;;;23.44;63.42;99580.60;110148;1266;22366;-61
2023/07/12 07:39:35;;;;;;;17.90;4.80;;;;;;;23.46;63.82;99583.80;110197;1273;22197;-60
2023/07/12 07:42:07;;;;;;;10.90;3.30;;;;;;;23.48;63.75;99592.98;110146;1264;22339;-61
2023/07/12 07:44:38;;;;;;;13.80;3.20;;;;;;;23.49;64.15;99601.73;110162;1279;22211;-59
2023/07/12 07:47:09;;;;;;;10.30;3.20;;;;;;;23.50;64.13;99616.61;110163;1267;22192;-59
2023/07/12 07:49:41;;;;;;;14.30;3.50;;;;;;;23.51;64.07;99628.83;110168;1272;22239;-59
2023/07/12 07:52:12;;;;;;;11.80;3.30;;;;;;;23.53;64.36;99643.83;110157;1272;23301;-59
2023/07/12 07:54:43;;;;;;;16.90;5.10;;;;;;;23.55;64.31;99658.95;110167;1279;22423;-61
2023/07/12 07:57:13;;;;;;;11.60;3.10;;;;;;;23.57;64.34;99669.62;110147;1275;22965;-61
2023/07/12 07:59:44;;;;;;;20.70;3.80;;;;;;;23.57;64.52;99684.60;110178;1279;22655;-60
2023/07/12 08:02:16;;;;;;;14.10;3.70;;;;;;;23.59;64.48;99694.02;110146;1267;22198;-60
2023/07/12 08:05:09;;;;;;;15.40;3.30;;;;;;;23.61;64.56;99692.77;110133;1276;22181;-59
2023/07/12 08:07:46;;;;;;;12.80;3.40;;;;;;;23.65;64.82;99691.96;110148;1279;22189;-61
2023/07/12 08:10:19;;;;;;;16.50;4.00;;;;;;;23.67;64.76;99699.32;110178;1272;22265;-60
2023/07/12 08:12:50;;;;;;;15.40;3.50;;;;;;;23.70;65.00;99699.95;110193;1279;22157;-62
2023/07/12 08:15:22;;;;;;;13.20;3.40;;;;;;;23.73;65.38;99701.20;110184;1272;22169;-61
2023/07/12 08:17:53;;;;;;;14.10;3.70;;;;;;;23.76;65.75;99700.23;110127;1272;22256;-61
2023/07/12 08:20:25;;;;;;;16.90;4.00;;;;;;;23.82;66.28;99695.73;110078;1272;22170;-61
2023/07/12 08:22:56;;;;;;;11.20;4.00;;;;;;;23.87;66.09;99699.09;110133;1272;23128;-61
2023/07/12 08:25:27;;;;;;;11.90;3.50;;;;;;;23.91;66.16;99703.32;110096;1265;22151;-62
2023/07/12 08:27:58;;;;;;;17.70;3.90;;;;;;;23.97;66.46;99705.69;110034;1274;22810;-60
2023/07/12 08:30:29;;;;;;;10.40;3.30;;;;;;;24.05;66.46;99708.55;109972;1273;22217;-61
2023/07/12 08:33:00;;;;;;;12.80;3.60;;;;;;;24.13;66.23;99706.20;109979;1272;22137;-59
2023/07/12 08:35:31;;;;;;;10.70;3.30;;;;;;;24.20;66.18;99703.91;109983;1269;22167;-60
2023/07/12 08:38:02;;;;;;;13.60;3.50;;;;;;;24.28;66.09;99703.02;110005;1268;22468;-62
2023/07/12 08:40:33;;;;;;;11.70;4.00;;;;;;;24.39;66.13;99698.38;110006;1273;22227;-61
2023/07/12 08:43:09;;;;;;;9.50;3.40;;;;;;;24.48;65.94;99706.14;110024;1279;23411;-61
2023/07/12 08:45:40;;;;;;;13.10;3.60;;;;;;;24.60;65.72;99710.79;110022;1272;22221;-60
2023/07/12 08:48:18;;;;;;;17.10;3.90;;;;;;;24.71;65.74;99708.90;110006;1274;22138;-61
2023/07/12 08:50:51;;;;;;;14.00;4.30;;;;;;;24.83;65.66;99713.83;110005;1272;22190;-61
2023/07/12 08:53:24;;;;;;;14.50;3.90;;;;;;;24.93;65.54;99723.39;109990;1275;22280;-60
2023/07/12 08:55:57;;;;;;;13.50;4.00;;;;;;;25.04;65.28;99721.15;109994;1272;22323;-59
2023/07/12 08:58:33;;;;;;;12.00;3.10;;;;;;;25.12;65.03;99719.65;109980;1273;22155;-60
2023/07/12 09:01:08;;;;;;;18.70;4.50;;;;;;;25.20;64.98;99716.84;109881;1275;23178;-60
2023/07/12 09:03:39;;;;;;;14.90;4.30;;;;;;;25.27;64.70;99724.09;109998;1275;22156;-59
2023/07/12 09:06:15;;;;;;;16.10;4.30;;;;;;;25.31;64.18;99727.85;109986;1272;22149;-62
2023/07/12 09:08:50;;;;;;;15.60;4.20;;;;;;;25.34;63.82;99728.64;110015;1277;22872;-61
2023/07/12 09:11:29;;;;;;;11.70;4.00;;;;;;;25.35;63.57;99733.98;110009;1273;22272;-61
2023/07/12 09:14:00;;;;;;;13.10;4.00;;;;;;;25.35;63.53;99734.17;110033;1273;22171;-61
2023/07/12 09:16:34;;;;;;;19.20;4.90;;;;;;;25.36;63.36;99733.37;110022;1266;22525;-61
2023/07/12 09:19:29;;;;;;;11.40;3.80;;;;;;;25.32;63.02;99732.05;110059;1267;22369;-63
2023/07/12 09:22:08;;;;;;;11.40;3.60;;;;;;;25.28;62.79;99724.34;110041;1275;22165;-60
2023/07/12 09:24:45;;;;;;;16.90;5.20;;;;;;;25.25;62.96;99722.38;109993;1275;22187;-62
2023/07/12 09:27:18;;;;;;;13.60;4.30;;;;;;;25.21;62.90;99720.77;110017;1275;22188;-61
2023/07/12 09:29:50;;;;;;;11.80;3.60;;;;;;;25.17;63.09;99725.75;109996;1273;23049;-62
2023/07/12 09:32:25;;;;;;;13.70;4.50;;;;;;;25.14;63.09;99739.10;110022;1277;22147;-61
2023/07/12 09:34:57;;;;;;;16.70;4.60;;;;;;;25.13;63.26;99744.11;109977;1275;23299;-60
2023/07/12 09:37:35;;;;;;;11.30;4.00;;;;;;;25.10;63.34;99738.86;109989;1272;23007;-59
2023/07/12 09:40:16;;;;;;;13.10;4.10;;;;;;;25.08;63.57;99739.72;110031;1278;22192;-63
2023/07/12 09:42:49;;;;;;;11.20;3.90;;;;;;;25.02;63.71;99741.67;109982;1280;22328;-62
2023/07/12 09:45:20;;;;;;;15.60;4.00;;;;;;;24.96;63.85;99745.27;109991;1275;22168;-62
2023/07/12 09:48:02;;;;;;;13.10;3.50;;;;;;;24.92;64.08;99738.54;110005;1276;22409;-60
2023/07/12 09:50:39;;;;;;;17.20;4.20;;;;;;;24.87;64.33;99725.95;109983;1276;22095;-59
2023/07/12 09:53:16;;;;;;;14.50;3.90;;;;;;;24.86;64.47;99713.80;110001;1275;22408;-61
2023/07/12 09:55:55;;;;;;;13.00;4.30;;;;;;;24.85;64.44;99723.08;110020;1274;22925;-63
2023/07/12 09:58:35;;;;;;;13.90;4.00;;;;;;;24.87;64.70;99726.22;110021;1272;22973;-60
2023/07/12 10:01:24;;;;;;;10.10;3.50;;;;;;;24.92;64.81;99732.14;109971;1272;22163;-62
2023/07/12 10:04:01;;;;;;;11.30;4.50;;;;;;;24.98;64.83;99729.16;110069;1278;22243;-60
2023/07/12 10:06:36;;;;;;;9.60;3.00;;;;;;;25.05;64.87;99711.51;110067;1275;22203;-61
2023/07/12 10:09:14;;;;;;;9.50;3.10;;;;;;;25.15;64.98;99705.69;110053;1269;22719;-62
2023/07/12 10:11:51;;;;;;;10.20;3.10;;;;;;;25.27;64.97;99716.78;110010;1275;23154;-62
2023/07/12 10:14:28;;;;;;;12.10;3.90;;;;;;;25.35;64.94;99724.88;110001;1274;22921;-62
2023/07/12 10:16:59;;;;;;;11.90;4.20;;;;;;;25.43;64.72;99726.73;110006;1275;22178;-61
2023/07/12 10:19:34;;;;;;;11.70;4.20;;;;;;;25.53;64.75;99722.64;110021;1265;22173;-62
2023/07/12 10:22:14;;;;;;;8.50;2.80;;;;;;;25.68;64.79;99724.38;110009;1273;22151;-61
2023/07/12 10:24:50;;;;;;;11.00;3.50;;;;;;;25.91;64.73;99729.74;110008;1272;22429;-60
2023/07/12 10:27:25;;;;;;;12.00;4.20;;;;;;;26.11;64.44;99736.04;109990;1266;22210;-61
2023/07/12 10:30:02;;;;;;;12.90;3.70;;;;;;;26.24;63.40;99730.88;110010;1273;22164;-62
2023/07/12 10:32:39;;;;;;;13.00;3.50;;;;;;;26.33;62.90;99730.37;110059;1273;22368;-62
2023/07/12 10:35:20;;;;;;;10.20;3.60;;;;;;;26.39;62.63;99731.84;110071;1275;22124;-60
2023/07/12 10:37:57;;;;;;;9.70;3.40;;;;;;;26.50;62.66;99724.59;110033;1272;22939;-61
2023/07/12 10:40:32;;;;;;;9.70;2.90;;;;;;;26.63;61.90;99718.98;110080;1272;22957;-61
2023/07/12 10:43:07;;;;;;;11.50;2.80;;;;;;;26.79;61.63;99717.38;110013;1276;22335;-59
2023/07/12 10:45:40;;;;;;;10.50;2.40;;;;;;;27.01;61.27;99719.27;110082;1275;22656;-61
2023/07/12 10:48:20;;;;;;;9.90;2.20;;;;;;;27.20;60.26;99717.05;110061;1272;22166;-62
2023/07/12 10:50:50;;;;;;;;;;;;;;;27.36;59.64;99709.59;110112;1277;22367;-61
2023/07/12 10:53:24;;;;;;;9.00;2.50;;;;;;;27.44;58.86;99698.55;110109;1277;22112;-63
2023/07/12 10:56:17;;;;;;;9.60;2.80;;;;;;;27.49;58.72;99697.08;110114;1272;22202;-61
2023/07/12 10:58:55;;;;;;;9.60;2.60;;;;;;;27.60;58.19;99699.39;110086;1274;22171;-62
2023/07/12 11:01:56;;;;;;;8.90;2.80;;;;;;;27.65;58.07;99698.63;110061;1273;22268;-59
2023/07/12 11:04:45;;;;;;;8.10;2.10;;;;;;;27.73;57.37;99703.90;110059;1273;22211;-63
2023/07/12 11:07:37;;;;;;;9.10;2.40;;;;;;;27.82;56.99;99695.05;110074;1266;22278;-59
2023/07/12 11:10:23;;;;;;;9.90;2.50;;;;;;;27.89;56.73;99684.96;110116;1273;22172;-60
2023/07/12 11:13:13;;;;;;;7.10;2.50;;;;;;;27.94;55.80;99682.00;110094;1279;22962;-62
2023/07/12 11:15:53;;;;;;;;;;;;;;;28.06;56.30;99681.34;110078;1279;22437;-62
2023/07/12 11:18:32;;;;;;;8.80;2.80;;;;;;;28.16;55.74;99679.58;110115;1272;22260;-61
2023/07/12 11:21:05;;;;;;;6.70;2.40;;;;;;;28.25;55.87;99671.20;110053;1275;22303;-62
2023/07/12 11:23:49;;;;;;;7.90;1.90;;;;;;;28.39;55.38;99659.89;110090;1272;22275;-61
2023/07/12 11:26:28;;;;;;;8.80;2.50;;;;;;;28.52;55.57;99658.90;110115;1269;22247;-62
2023/07/12 11:29:28;;;;;;;12.20;2.90;;;;;;;28.70;55.66;99664.23;110080;1275;22827;-61
2023/07/12 11:32:12;;;;;;;5.90;1.90;;;;;;;28.78;54.23;99663.22;110131;1272;22206;-61
2023/07/12 11:34:44;;;;;;;7.60;1.90;;;;;;;28.84;53.77;99658.98;110141;1275;22368;-59
2023/07/12 11:37:26;;;;;;;7.50;2.30;;;;;;;28.88;53.62;99665.11;110174;1272;23014;-62
2023/07/12 11:39:57;;;;;;;10.10;1.80;;;;;;;28.94;53.39;99665.50;110184;1279;22243;-62
2023/07/12 11:42:30;;;;;;;9.40;2.50;;;;;;;28.97;51.99;99664.41;110129;1278;22115;-61
2023/07/12 11:45:11;;;;;;;7.60;2.40;;;;;;;29.04;51.85;99660.67;110148;1269;22304;-62
2023/07/12 11:47:45;;;;;;;13.90;2.90;;;;;;;29.09;51.63;99655.38;110132;1269;22258;-61
2023/07/12 11:50:21;;;;;;;7.90;2.20;;;;;;;29.09;50.66;99658.15;110145;1277;22191;-59